METAR Data
IDs: Format: Raw Decoded Include TAF

Data at: 1457 UTC 12 Dec 2018

PAPM 111956Z AUTO 32012KT 4SM -SN BR M06/M07 A2919 RMK AO2 SNE09B25 SLP889 P0000 T10611067 FZRANO $
PAPM 111952Z AUTO 32015KT 1SM -SN BR M06/M06 A2919 RMK AO2 VIS 1/4V5 SNE09B25 P0000 FZRANO $
PAPM 111947Z AUTO 32017KT 1/2SM SN FZFG M06/M06 A2919 RMK AO2 SNE09B25 P0000 FZRANO $
PAPM 111939Z AUTO 31021KT 3/4SM -SN BR M05/M06 A2919 RMK AO2 SNE09B25 P0000 FZRANO $
PAPM 111936Z AUTO 30019KT 1 1/4SM -SN BR M05/M06 A2919 RMK AO2 SNE09B25 P0000 FZRANO $
PAPM 111905Z AUTO 29021KT 6SM -SN BR M05/M06 A2917 RMK AO2 P0000 FZRANO $
PAPM 111856Z AUTO 29023G26KT 2SM -SN BR M05/M06 A2917 RMK AO2 PK WND 28026/1855 VIS 1 1/4V5 SNB26 SLP881 P0000 T10501056 FZRANO $
PAPM 111756Z AUTO 31016KT 10SM M06/M06 A2915 RMK AO2 SLP873 60000 T10561061 11044 21056 53020 FZRANO $
PAPM 111656Z AUTO 31016KT 10SM M06/M06 A2913 RMK AO2 SLP865 T10561061 FZRANO $
PAPM 111556Z AUTO 29017KT 10SM M04/M05 A2910 RMK AO2 SNE06 SLP858 P0000 T10441050 FZRANO $
PAPM 111456Z AUTO 29017KT 10SM -SN M05/M06 A2909 RMK AO2 UPB08E16SNB1359E08B23 SLP852 P0000 60000 T10501056 51018 FZRANO $
PAPM 111356Z AUTO 30020KT 10SM M05/M06 A2907 RMK AO2 PK WND 29026/1345 UPB33E39SNE1257B13E33 SLP846 P0000 T10501056 FZRANO $
PAPM 111256Z AUTO 31019KT 9SM -SN M05/M06 A2906 RMK AO2 PK WND 30026/1209 UPB41E45SNB1159E41B45 SLP842 P0000 T10501056 FZRANO $
PAPM 111156Z AUTO 31021G26KT 9SM M05/M06 A2903 RMK AO2 PK WND 29029/1112 SNB19E46 SLP834 P0000 60000 T10501056 11050 21056 53019 FZRANO $
PAPM 111056Z AUTO 30022G27KT 8SM M05/M06 A2900 RMK AO2 PK WND 30033/0957 UPB27E55 SLP824 P0000 T10501056 FZRANO $
PAPM 110956Z AUTO 30023G33KT 4SM BLSN BR M05/M06 A2898 RMK AO2 PK WND 30034/0929 SLP815 T10501056 FZRANO $
PAPM 110954Z AUTO 30026G33KT 4SM BLSN BR M05/M06 A2898 RMK AO2 PK WND 30034/0929 FZRANO $
PAPM 110944Z AUTO 30028G32KT 2 1/2SM BLSN BR M05/M06 A2897 RMK AO2 PK WND 30034/0929 VIS 1 3/4V4 FZRANO $
PAPM 110929Z AUTO 30028G34KT 3SM BLSN BR M05/M06 A2896 RMK AO2 PK WND 30034/0929 FZRANO $
PAPM 110856Z AUTO 31027G34KT 2SM BLSN BR M06/M06 A2894 RMK AO2 PK WND 30038/0829 SNE0757 SLP804 60000 T10561061 410061056 51038 FZRANO $
PAPM 110756Z AUTO 30029G37KT 1 1/4SM -SN BR M06/M06 A2891 RMK AO2 PK WND 29041/0700 VIS 3/4V2 SLP792 P0000 T10561061 FZRANO $
PAPM 110747Z AUTO 31027G33KT 1 3/4SM -SN BR M06/M07 A2890 RMK AO2 PK WND 29041/0700 P0000 FZRANO $
PAPM 110740Z AUTO 31028G37KT 1SM -SN BR M06/M06 A2890 RMK AO2 PK WND 29041/0700 P0000 FZRANO $
PAPM 110656Z AUTO 30028G41KT 3/4SM -SN BR M06/M06 A2887 RMK AO2 PK WND 29041/0652 SLP779 P0000 T10561061 FZRANO $
PAPM 110638Z AUTO 31029G38KT 1SM -SN BR M06/M06 A2885 RMK AO2 PK WND 30039/0621 P0000 FZRANO $
PAPM 110556Z AUTO 30031G37KT 1/2SM SN FZFG M06/M06 A2883 RMK AO2 PK WND 30037/0556 SLP765 P0000 60000 T10561061 11044 21056 51028 FZRANO $
PAPM 110551Z AUTO 30033G37KT 1/2SM SN FZFG M06/M06 A2883 RMK AO2 PK WND 29037/0550 P0000 FZRANO $
PAPM 110456Z AUTO 30029G37KT 3/4SM -SN BR M05/M06 A2878 RMK AO2 PK WND 30037/0447 SLP749 P0000 T10501061 FZRANO $
PAPM 110443Z AUTO 30029G35KT 3/4SM -SN BR M05/M06 A2878 RMK AO2 PK WND 30037/0424 P0000 FZRANO $
PAPM 110414Z AUTO 30030G36KT 1/2SM SN FZFG M06/M06 A2876 RMK AO2 PK WND 30036/0407 P0000 FZRANO $
PAPM 110356Z AUTO 30030G37KT 3/4SM -SN BR M06/M06 A2875 RMK AO2 PK WND 30038/0338 SLP737 P0000 T10561061 FZRANO $
PAPM 110344Z AUTO 30030G38KT 3/4SM -SN BR M06/M06 A2874 RMK AO2 PK WND 30038/0338 P0000 FZRANO $